sensor_id;sensor_type;location;lat;lon;timestamp;P1;durP1;ratioP1;P2;durP2;ratioP2
24147;SDS011;12309;51.450;-2.624;2022-07-19T00:00:10;5.72;;;2.22;;
24147;SDS011;12309;51.450;-2.624;2022-07-19T00:02:38;7.75;;;2.47;;
24147;SDS011;12309;51.450;-2.624;2022-07-19T00:05:05;9.95;;;2.80;;
24147;SDS011;12309;51.450;-2.624;2022-07-19T00:07:32;6.93;;;2.63;;
24147;SDS011;12309;51.450;-2.624;2022-07-19T00:09:59;6.10;;;2.35;;
24147;SDS011;12309;51.450;-2.624;2022-07-19T00:12:24;7.38;;;2.40;;
24147;SDS011;12309;51.450;-2.624;2022-07-19T00:14:50;5.60;;;2.47;;
24147;SDS011;12309;51.450;-2.624;2022-07-19T00:17:16;5.07;;;2.47;;
24147;SDS011;12309;51.450;-2.624;2022-07-19T00:19:42;10.00;;;2.60;;
24147;SDS011;12309;51.450;-2.624;2022-07-19T00:22:08;6.93;;;2.63;;
24147;SDS011;12309;51.450;-2.624;2022-07-19T00:24:34;7.55;;;2.53;;
24147;SDS011;12309;51.450;-2.624;2022-07-19T00:26:59;6.07;;;2.70;;
24147;SDS011;12309;51.450;-2.624;2022-07-19T00:29:25;3.97;;;2.30;;
24147;SDS011;12309;51.450;-2.624;2022-07-19T00:31:51;6.43;;;2.28;;
24147;SDS011;12309;51.450;-2.624;2022-07-19T00:34:17;7.88;;;2.20;;
24147;SDS011;12309;51.450;-2.624;2022-07-19T00:36:43;9.07;;;2.20;;
24147;SDS011;12309;51.450;-2.624;2022-07-19T00:39:09;6.50;;;2.47;;
24147;SDS011;12309;51.450;-2.624;2022-07-19T00:41:40;6.88;;;2.10;;
24147;SDS011;12309;51.450;-2.624;2022-07-19T00:44:08;4.97;;;2.22;;
24147;SDS011;12309;51.450;-2.624;2022-07-19T00:46:34;5.93;;;2.42;;
24147;SDS011;12309;51.450;-2.624;2022-07-19T00:49:00;7.28;;;2.55;;
24147;SDS011;12309;51.450;-2.624;2022-07-19T00:51:26;5.07;;;2.50;;
24147;SDS011;12309;51.450;-2.624;2022-07-19T00:53:53;5.55;;;2.40;;
24147;SDS011;12309;51.450;-2.624;2022-07-19T00:56:21;3.90;;;2.60;;
24147;SDS011;12309;51.450;-2.624;2022-07-19T00:58:50;6.70;;;2.50;;
24147;SDS011;12309;51.450;-2.624;2022-07-19T01:01:16;4.32;;;2.60;;
24147;SDS011;12309;51.450;-2.624;2022-07-19T01:03:43;4.60;;;2.10;;
24147;SDS011;12309;51.450;-2.624;2022-07-19T01:06:10;4.35;;;2.25;;
24147;SDS011;12309;51.450;-2.624;2022-07-19T01:08:36;8.68;;;2.42;;
24147;SDS011;12309;51.450;-2.624;2022-07-19T01:11:03;5.18;;;2.50;;
24147;SDS011;12309;51.450;-2.624;2022-07-19T01:13:30;3.00;;;2.00;;
24147;SDS011;12309;51.450;-2.624;2022-07-19T01:15:57;6.25;;;2.35;;
24147;SDS011;12309;51.450;-2.624;2022-07-19T01:18:23;3.53;;;2.42;;
24147;SDS011;12309;51.450;-2.624;2022-07-19T01:20:49;4.97;;;2.33;;
24147;SDS011;12309;51.450;-2.624;2022-07-19T01:23:16;4.32;;;2.30;;
24147;SDS011;12309;51.450;-2.624;2022-07-19T01:25:42;7.78;;;2.03;;
24147;SDS011;12309;51.450;-2.624;2022-07-19T01:28:08;6.38;;;2.00;;
24147;SDS011;12309;51.450;-2.624;2022-07-19T01:30:35;6.00;;;2.22;;
24147;SDS011;12309;51.450;-2.624;2022-07-19T01:33:01;6.30;;;2.70;;
24147;SDS011;12309;51.450;-2.624;2022-07-19T01:35:28;7.93;;;2.90;;
24147;SDS011;12309;51.450;-2.624;2022-07-19T01:37:54;4.60;;;2.08;;
24147;SDS011;12309;51.450;-2.624;2022-07-19T01:40:20;8.90;;;2.30;;
24147;SDS011;12309;51.450;-2.624;2022-07-19T01:42:47;9.65;;;2.15;;
24147;SDS011;12309;51.450;-2.624;2022-07-19T01:45:14;3.65;;;2.20;;
24147;SDS011;12309;51.450;-2.624;2022-07-19T01:47:40;7.07;;;2.15;;
24147;SDS011;12309;51.450;-2.624;2022-07-19T01:50:07;8.90;;;2.50;;
24147;SDS011;12309;51.450;-2.624;2022-07-19T01:52:34;5.93;;;2.33;;
24147;SDS011;12309;51.450;-2.624;2022-07-19T01:55:00;3.67;;;2.10;;
24147;SDS011;12309;51.450;-2.624;2022-07-19T01:57:26;6.10;;;2.60;;
24147;SDS011;12309;51.450;-2.624;2022-07-19T01:59:53;5.35;;;2.47;;
24147;SDS011;12309;51.450;-2.624;2022-07-19T02:02:20;7.28;;;2.40;;
24147;SDS011;12309;51.450;-2.624;2022-07-19T02:04:46;6.32;;;2.42;;
24147;SDS011;12309;51.450;-2.624;2022-07-19T02:07:12;6.55;;;2.42;;
24147;SDS011;12309;51.450;-2.624;2022-07-19T02:09:37;8.95;;;2.55;;
24147;SDS011;12309;51.450;-2.624;2022-07-19T02:12:03;5.05;;;2.20;;
24147;SDS011;12309;51.450;-2.624;2022-07-19T02:14:29;6.55;;;2.10;;
24147;SDS011;12309;51.450;-2.624;2022-07-19T02:16:55;5.03;;;2.13;;
24147;SDS011;12309;51.450;-2.624;2022-07-19T02:19:21;5.38;;;2.17;;
24147;SDS011;12309;51.450;-2.624;2022-07-19T02:21:47;4.82;;;2.40;;
24147;SDS011;12309;51.450;-2.624;2022-07-19T02:24:13;10.20;;;2.33;;
24147;SDS011;12309;51.450;-2.624;2022-07-19T02:26:39;7.30;;;1.92;;
24147;SDS011;12309;51.450;-2.624;2022-07-19T02:29:05;4.47;;;2.15;;
24147;SDS011;12309;51.450;-2.624;2022-07-19T02:31:31;8.40;;;2.38;;
24147;SDS011;12309;51.450;-2.624;2022-07-19T02:33:58;4.93;;;2.25;;
24147;SDS011;12309;51.450;-2.624;2022-07-19T02:36:24;4.10;;;2.35;;
24147;SDS011;12309;51.450;-2.624;2022-07-19T02:38:50;4.45;;;2.28;;
24147;SDS011;12309;51.450;-2.624;2022-07-19T02:41:16;4.25;;;2.40;;
24147;SDS011;12309;51.450;-2.624;2022-07-19T02:43:42;7.50;;;2.17;;
24147;SDS011;12309;51.450;-2.624;2022-07-19T02:46:09;7.70;;;2.45;;
24147;SDS011;12309;51.450;-2.624;2022-07-19T02:48:35;5.75;;;2.30;;
24147;SDS011;12309;51.450;-2.624;2022-07-19T02:51:01;7.50;;;2.28;;
24147;SDS011;12309;51.450;-2.624;2022-07-19T02:53:27;5.20;;;2.40;;
24147;SDS011;12309;51.450;-2.624;2022-07-19T02:55:53;5.32;;;2.75;;
24147;SDS011;12309;51.450;-2.624;2022-07-19T02:58:18;6.55;;;2.40;;
24147;SDS011;12309;51.450;-2.624;2022-07-19T03:00:44;7.40;;;2.40;;
24147;SDS011;12309;51.450;-2.624;2022-07-19T03:03:10;3.50;;;2.08;;
24147;SDS011;12309;51.450;-2.624;2022-07-19T03:05:55;3.05;;;2.42;;
24147;SDS011;12309;51.450;-2.624;2022-07-19T03:08:21;9.75;;;2.63;;
24147;SDS011;12309;51.450;-2.624;2022-07-19T03:10:47;4.35;;;2.50;;
24147;SDS011;12309;51.450;-2.624;2022-07-19T03:13:13;6.25;;;2.85;;
24147;SDS011;12309;51.450;-2.624;2022-07-19T03:15:39;5.90;;;2.53;;
24147;SDS011;12309;51.450;-2.624;2022-07-19T03:18:05;7.00;;;2.38;;
24147;SDS011;12309;51.450;-2.624;2022-07-19T03:20:31;8.15;;;2.85;;
24147;SDS011;12309;51.450;-2.624;2022-07-19T03:22:57;4.57;;;2.60;;
24147;SDS011;12309;51.450;-2.624;2022-07-19T03:25:23;6.80;;;2.72;;
24147;SDS011;12309;51.450;-2.624;2022-07-19T03:27:49;6.22;;;2.55;;
24147;SDS011;12309;51.450;-2.624;2022-07-19T03:30:15;6.15;;;2.72;;
24147;SDS011;12309;51.450;-2.624;2022-07-19T03:32:41;4.47;;;2.40;;
24147;SDS011;12309;51.450;-2.624;2022-07-19T03:35:07;8.32;;;3.03;;
24147;SDS011;12309;51.450;-2.624;2022-07-19T03:37:33;9.88;;;2.85;;
24147;SDS011;12309;51.450;-2.624;2022-07-19T03:39:59;6.32;;;2.78;;
24147;SDS011;12309;51.450;-2.624;2022-07-19T03:42:25;5.50;;;2.75;;
24147;SDS011;12309;51.450;-2.624;2022-07-19T03:44:51;10.25;;;2.53;;
24147;SDS011;12309;51.450;-2.624;2022-07-19T03:47:17;6.80;;;2.45;;
24147;SDS011;12309;51.450;-2.624;2022-07-19T03:49:43;8.43;;;2.63;;
24147;SDS011;12309;51.450;-2.624;2022-07-19T03:52:09;5.75;;;2.80;;
24147;SDS011;12309;51.450;-2.624;2022-07-19T03:54:34;14.80;;;2.65;;
24147;SDS011;12309;51.450;-2.624;2022-07-19T03:57:00;6.53;;;2.90;;
24147;SDS011;12309;51.450;-2.624;2022-07-19T03:59:26;8.05;;;2.95;;
24147;SDS011;12309;51.450;-2.624;2022-07-19T04:01:52;7.68;;;2.75;;
24147;SDS011;12309;51.450;-2.624;2022-07-19T04:04:18;11.25;;;3.00;;
24147;SDS011;12309;51.450;-2.624;2022-07-19T04:06:43;5.75;;;2.60;;
24147;SDS011;12309;51.450;-2.624;2022-07-19T04:09:10;11.38;;;2.85;;
24147;SDS011;12309;51.450;-2.624;2022-07-19T04:11:36;7.53;;;2.60;;
24147;SDS011;12309;51.450;-2.624;2022-07-19T04:14:02;12.38;;;2.83;;
24147;SDS011;12309;51.450;-2.624;2022-07-19T04:16:28;7.55;;;2.70;;
24147;SDS011;12309;51.450;-2.624;2022-07-19T04:18:53;5.53;;;2.30;;
24147;SDS011;12309;51.450;-2.624;2022-07-19T04:21:19;8.40;;;2.50;;
24147;SDS011;12309;51.450;-2.624;2022-07-19T04:23:45;7.78;;;2.67;;
24147;SDS011;12309;51.450;-2.624;2022-07-19T04:26:11;6.85;;;2.50;;
24147;SDS011;12309;51.450;-2.624;2022-07-19T04:28:37;11.50;;;2.65;;
24147;SDS011;12309;51.450;-2.624;2022-07-19T04:31:03;5.18;;;2.78;;
24147;SDS011;12309;51.450;-2.624;2022-07-19T04:33:29;4.15;;;2.33;;
24147;SDS011;12309;51.450;-2.624;2022-07-19T04:35:55;8.25;;;2.92;;
24147;SDS011;12309;51.450;-2.624;2022-07-19T04:38:21;9.77;;;2.50;;
24147;SDS011;12309;51.450;-2.624;2022-07-19T04:40:47;8.50;;;2.95;;
24147;SDS011;12309;51.450;-2.624;2022-07-19T04:43:13;6.75;;;2.58;;
24147;SDS011;12309;51.450;-2.624;2022-07-19T04:45:40;4.78;;;2.92;;
24147;SDS011;12309;51.450;-2.624;2022-07-19T04:48:07;6.55;;;2.80;;
24147;SDS011;12309;51.450;-2.624;2022-07-19T04:50:33;13.02;;;2.53;;
24147;SDS011;12309;51.450;-2.624;2022-07-19T04:52:59;12.05;;;3.00;;
24147;SDS011;12309;51.450;-2.624;2022-07-19T04:55:25;9.35;;;2.60;;
24147;SDS011;12309;51.450;-2.624;2022-07-19T04:57:50;8.07;;;2.60;;
24147;SDS011;12309;51.450;-2.624;2022-07-19T05:00:19;8.50;;;3.13;;
24147;SDS011;12309;51.450;-2.624;2022-07-19T05:02:45;9.60;;;2.97;;
24147;SDS011;12309;51.450;-2.624;2022-07-19T05:05:11;9.90;;;3.13;;
24147;SDS011;12309;51.450;-2.624;2022-07-19T05:07:37;8.70;;;3.13;;
24147;SDS011;12309;51.450;-2.624;2022-07-19T05:10:04;7.05;;;2.83;;
24147;SDS011;12309;51.450;-2.624;2022-07-19T05:12:30;9.88;;;2.95;;
24147;SDS011;12309;51.450;-2.624;2022-07-19T05:14:56;7.07;;;2.80;;
24147;SDS011;12309;51.450;-2.624;2022-07-19T05:17:23;6.80;;;2.97;;
24147;SDS011;12309;51.450;-2.624;2022-07-19T05:19:49;12.68;;;6.28;;
24147;SDS011;12309;51.450;-2.624;2022-07-19T05:22:15;7.80;;;3.08;;
24147;SDS011;12309;51.450;-2.624;2022-07-19T05:24:41;9.88;;;3.90;;
24147;SDS011;12309;51.450;-2.624;2022-07-19T05:27:07;10.70;;;3.70;;
24147;SDS011;12309;51.450;-2.624;2022-07-19T05:29:33;9.23;;;3.58;;
24147;SDS011;12309;51.450;-2.624;2022-07-19T05:31:59;8.02;;;3.45;;
24147;SDS011;12309;51.450;-2.624;2022-07-19T05:34:25;8.18;;;3.03;;
24147;SDS011;12309;51.450;-2.624;2022-07-19T05:36:50;8.07;;;2.95;;
24147;SDS011;12309;51.450;-2.624;2022-07-19T05:39:16;11.75;;;3.58;;
24147;SDS011;12309;51.450;-2.624;2022-07-19T05:41:42;7.78;;;2.85;;
24147;SDS011;12309;51.450;-2.624;2022-07-19T05:44:09;14.63;;;2.92;;
24147;SDS011;12309;51.450;-2.624;2022-07-19T05:46:35;8.68;;;3.10;;
24147;SDS011;12309;51.450;-2.624;2022-07-19T05:49:06;15.32;;;3.65;;
24147;SDS011;12309;51.450;-2.624;2022-07-19T05:51:33;11.38;;;3.20;;
24147;SDS011;12309;51.450;-2.624;2022-07-19T05:54:00;9.13;;;3.30;;
24147;SDS011;12309;51.450;-2.624;2022-07-19T05:56:26;13.45;;;3.00;;
24147;SDS011;12309;51.450;-2.624;2022-07-19T05:58:52;14.68;;;2.90;;
24147;SDS011;12309;51.450;-2.624;2022-07-19T06:01:19;11.98;;;3.20;;
24147;SDS011;12309;51.450;-2.624;2022-07-19T06:03:45;12.63;;;3.20;;
24147;SDS011;12309;51.450;-2.624;2022-07-19T06:06:12;10.90;;;2.80;;
24147;SDS011;12309;51.450;-2.624;2022-07-19T06:08:39;12.20;;;3.10;;
24147;SDS011;12309;51.450;-2.624;2022-07-19T06:11:05;12.02;;;3.05;;
24147;SDS011;12309;51.450;-2.624;2022-07-19T06:13:31;15.52;;;3.17;;
24147;SDS011;12309;51.450;-2.624;2022-07-19T06:15:56;11.18;;;3.20;;
24147;SDS011;12309;51.450;-2.624;2022-07-19T06:18:22;12.77;;;3.25;;
24147;SDS011;12309;51.450;-2.624;2022-07-19T06:20:48;12.98;;;3.17;;
24147;SDS011;12309;51.450;-2.624;2022-07-19T06:23:14;15.15;;;3.35;;
24147;SDS011;12309;51.450;-2.624;2022-07-19T06:25:40;15.82;;;3.38;;
24147;SDS011;12309;51.450;-2.624;2022-07-19T06:28:06;11.20;;;3.15;;
24147;SDS011;12309;51.450;-2.624;2022-07-19T06:30:31;6.43;;;3.17;;
24147;SDS011;12309;51.450;-2.624;2022-07-19T06:32:57;17.77;;;3.28;;
24147;SDS011;12309;51.450;-2.624;2022-07-19T06:35:23;11.18;;;2.97;;
24147;SDS011;12309;51.450;-2.624;2022-07-19T06:37:49;12.55;;;3.13;;
24147;SDS011;12309;51.450;-2.624;2022-07-19T06:40:15;9.90;;;3.28;;
24147;SDS011;12309;51.450;-2.624;2022-07-19T06:42:41;13.52;;;3.15;;
24147;SDS011;12309;51.450;-2.624;2022-07-19T06:45:07;12.57;;;3.03;;
24147;SDS011;12309;51.450;-2.624;2022-07-19T06:47:33;13.10;;;3.10;;
24147;SDS011;12309;51.450;-2.624;2022-07-19T06:49:59;16.38;;;2.83;;
24147;SDS011;12309;51.450;-2.624;2022-07-19T06:52:25;17.90;;;3.50;;
24147;SDS011;12309;51.450;-2.624;2022-07-19T06:54:51;7.88;;;2.67;;
24147;SDS011;12309;51.450;-2.624;2022-07-19T06:57:17;7.90;;;2.95;;
24147;SDS011;12309;51.450;-2.624;2022-07-19T06:59:43;11.20;;;3.05;;
24147;SDS011;12309;51.450;-2.624;2022-07-19T07:02:09;14.85;;;3.20;;
24147;SDS011;12309;51.450;-2.624;2022-07-19T07:04:35;11.00;;;3.17;;
24147;SDS011;12309;51.450;-2.624;2022-07-19T07:07:01;13.02;;;3.20;;
24147;SDS011;12309;51.450;-2.624;2022-07-19T07:09:27;9.30;;;3.13;;
24147;SDS011;12309;51.450;-2.624;2022-07-19T07:11:52;8.50;;;3.03;;
24147;SDS011;12309;51.450;-2.624;2022-07-19T07:14:18;9.80;;;2.88;;
24147;SDS011;12309;51.450;-2.624;2022-07-19T07:16:44;9.32;;;2.72;;
24147;SDS011;12309;51.450;-2.624;2022-07-19T07:19:10;10.50;;;2.90;;
24147;SDS011;12309;51.450;-2.624;2022-07-19T07:21:36;11.10;;;2.85;;
24147;SDS011;12309;51.450;-2.624;2022-07-19T07:24:02;8.02;;;2.97;;
24147;SDS011;12309;51.450;-2.624;2022-07-19T07:26:29;7.97;;;3.45;;
24147;SDS011;12309;51.450;-2.624;2022-07-19T07:28:54;12.27;;;2.80;;
24147;SDS011;12309;51.450;-2.624;2022-07-19T07:31:20;12.32;;;3.05;;
24147;SDS011;12309;51.450;-2.624;2022-07-19T07:33:46;12.13;;;2.80;;
24147;SDS011;12309;51.450;-2.624;2022-07-19T07:36:12;10.48;;;3.00;;
24147;SDS011;12309;51.450;-2.624;2022-07-19T07:38:38;14.52;;;3.15;;
24147;SDS011;12309;51.450;-2.624;2022-07-19T07:41:04;10.18;;;2.80;;
24147;SDS011;12309;51.450;-2.624;2022-07-19T07:43:30;10.50;;;3.20;;
24147;SDS011;12309;51.450;-2.624;2022-07-19T07:45:56;10.90;;;3.13;;
24147;SDS011;12309;51.450;-2.624;2022-07-19T07:48:22;12.65;;;2.83;;
24147;SDS011;12309;51.450;-2.624;2022-07-19T07:50:48;10.30;;;3.20;;
24147;SDS011;12309;51.450;-2.624;2022-07-19T07:53:14;10.13;;;3.13;;
24147;SDS011;12309;51.450;-2.624;2022-07-19T07:55:40;9.52;;;2.75;;
24147;SDS011;12309;51.450;-2.624;2022-07-19T07:58:09;9.65;;;2.85;;
24147;SDS011;12309;51.450;-2.624;2022-07-19T08:00:36;11.23;;;2.92;;
24147;SDS011;12309;51.450;-2.624;2022-07-19T08:03:03;8.02;;;3.15;;
24147;SDS011;12309;51.450;-2.624;2022-07-19T08:05:29;13.20;;;3.30;;
24147;SDS011;12309;51.450;-2.624;2022-07-19T08:07:56;15.63;;;3.22;;
24147;SDS011;12309;51.450;-2.624;2022-07-19T08:10:22;15.63;;;3.78;;
24147;SDS011;12309;51.450;-2.624;2022-07-19T08:12:50;11.45;;;2.83;;
24147;SDS011;12309;51.450;-2.624;2022-07-19T08:15:16;13.48;;;3.08;;
24147;SDS011;12309;51.450;-2.624;2022-07-19T08:17:41;14.38;;;3.58;;
24147;SDS011;12309;51.450;-2.624;2022-07-19T08:20:09;10.50;;;2.85;;
24147;SDS011;12309;51.450;-2.624;2022-07-19T08:22:35;15.18;;;3.45;;
24147;SDS011;12309;51.450;-2.624;2022-07-19T08:25:01;14.57;;;3.03;;
24147;SDS011;12309;51.450;-2.624;2022-07-19T08:27:28;15.70;;;3.53;;
24147;SDS011;12309;51.450;-2.624;2022-07-19T08:29:54;11.77;;;3.60;;
24147;SDS011;12309;51.450;-2.624;2022-07-19T08:32:19;17.65;;;3.22;;
24147;SDS011;12309;51.450;-2.624;2022-07-19T08:34:45;10.27;;;3.50;;
24147;SDS011;12309;51.450;-2.624;2022-07-19T08:37:11;11.23;;;3.17;;
24147;SDS011;12309;51.450;-2.624;2022-07-19T08:39:37;11.25;;;3.10;;
24147;SDS011;12309;51.450;-2.624;2022-07-19T08:42:03;18.02;;;3.70;;
24147;SDS011;12309;51.450;-2.624;2022-07-19T08:44:29;12.73;;;3.35;;
24147;SDS011;12309;51.450;-2.624;2022-07-19T08:46:56;8.63;;;3.33;;
24147;SDS011;12309;51.450;-2.624;2022-07-19T08:49:23;11.32;;;3.47;;
24147;SDS011;12309;51.450;-2.624;2022-07-19T08:51:49;14.10;;;3.15;;
24147;SDS011;12309;51.450;-2.624;2022-07-19T08:54:17;13.93;;;3.58;;
24147;SDS011;12309;51.450;-2.624;2022-07-19T08:56:44;13.32;;;3.72;;
24147;SDS011;12309;51.450;-2.624;2022-07-19T08:59:28;12.80;;;3.45;;
24147;SDS011;12309;51.450;-2.624;2022-07-19T09:01:56;16.67;;;3.70;;
24147;SDS011;12309;51.450;-2.624;2022-07-19T09:04:22;20.20;;;3.95;;
24147;SDS011;12309;51.450;-2.624;2022-07-19T09:06:54;14.15;;;3.88;;
24147;SDS011;12309;51.450;-2.624;2022-07-19T09:09:28;16.25;;;4.22;;
24147;SDS011;12309;51.450;-2.624;2022-07-19T09:11:55;12.35;;;4.47;;
24147;SDS011;12309;51.450;-2.624;2022-07-19T09:14:25;12.35;;;3.95;;
24147;SDS011;12309;51.450;-2.624;2022-07-19T09:17:09;22.80;;;4.43;;
24147;SDS011;12309;51.450;-2.624;2022-07-19T09:19:39;14.90;;;3.80;;
24147;SDS011;12309;51.450;-2.624;2022-07-19T09:22:08;16.80;;;4.72;;
24147;SDS011;12309;51.450;-2.624;2022-07-19T09:24:45;12.60;;;3.58;;
24147;SDS011;12309;51.450;-2.624;2022-07-19T09:27:14;14.48;;;3.92;;
24147;SDS011;12309;51.450;-2.624;2022-07-19T09:29:46;14.70;;;3.53;;
24147;SDS011;12309;51.450;-2.624;2022-07-19T09:32:18;10.52;;;4.15;;
24147;SDS011;12309;51.450;-2.624;2022-07-19T09:34:58;8.57;;;3.80;;
24147;SDS011;12309;51.450;-2.624;2022-07-19T09:37:29;14.60;;;3.78;;
24147;SDS011;12309;51.450;-2.624;2022-07-19T09:40:00;15.95;;;4.43;;
24147;SDS011;12309;51.450;-2.624;2022-07-19T09:42:35;14.45;;;3.83;;
24147;SDS011;12309;51.450;-2.624;2022-07-19T09:45:09;14.02;;;4.45;;
24147;SDS011;12309;51.450;-2.624;2022-07-19T09:47:38;13.75;;;4.22;;
24147;SDS011;12309;51.450;-2.624;2022-07-19T09:50:08;16.23;;;3.95;;
24147;SDS011;12309;51.450;-2.624;2022-07-19T09:52:39;12.73;;;4.22;;
24147;SDS011;12309;51.450;-2.624;2022-07-19T09:55:07;12.25;;;4.07;;
24147;SDS011;12309;51.450;-2.624;2022-07-19T09:57:35;14.00;;;3.90;;
24147;SDS011;12309;51.450;-2.624;2022-07-19T10:00:04;14.77;;;3.88;;
24147;SDS011;12309;51.450;-2.624;2022-07-19T10:02:33;13.25;;;3.95;;
24147;SDS011;12309;51.450;-2.624;2022-07-19T10:05:05;11.73;;;4.28;;
24147;SDS011;12309;51.450;-2.624;2022-07-19T10:07:32;14.35;;;4.07;;
24147;SDS011;12309;51.450;-2.624;2022-07-19T10:10:01;15.88;;;4.30;;
24147;SDS011;12309;51.450;-2.624;2022-07-19T10:12:29;14.93;;;4.60;;
24147;SDS011;12309;51.450;-2.624;2022-07-19T10:14:55;17.50;;;4.55;;
24147;SDS011;12309;51.450;-2.624;2022-07-19T10:17:23;19.77;;;5.07;;
24147;SDS011;12309;51.450;-2.624;2022-07-19T10:19:54;17.80;;;4.70;;
24147;SDS011;12309;51.450;-2.624;2022-07-19T10:22:21;12.10;;;4.78;;
24147;SDS011;12309;51.450;-2.624;2022-07-19T10:24:57;21.10;;;4.80;;
24147;SDS011;12309;51.450;-2.624;2022-07-19T10:32:27;9.35;;;4.63;;
24147;SDS011;12309;51.450;-2.624;2022-07-19T10:35:13;28.88;;;4.78;;
24147;SDS011;12309;51.450;-2.624;2022-07-19T10:37:46;23.35;;;5.90;;
24147;SDS011;12309;51.450;-2.624;2022-07-19T10:43:08;19.80;;;5.00;;
24147;SDS011;12309;51.450;-2.624;2022-07-19T10:45:41;24.15;;;4.68;;
24147;SDS011;12309;51.450;-2.624;2022-07-19T10:48:38;22.85;;;5.07;;
24147;SDS011;12309;51.450;-2.624;2022-07-19T10:51:06;18.05;;;4.15;;
24147;SDS011;12309;51.450;-2.624;2022-07-19T10:56:14;15.95;;;4.28;;
24147;SDS011;12309;51.450;-2.624;2022-07-19T10:58:51;14.10;;;4.65;;
24147;SDS011;12309;51.450;-2.624;2022-07-19T11:01:18;17.15;;;5.38;;
24147;SDS011;12309;51.450;-2.624;2022-07-19T11:03:46;13.18;;;4.60;;
24147;SDS011;12309;51.450;-2.624;2022-07-19T11:06:22;15.85;;;4.80;;
24147;SDS011;12309;51.450;-2.624;2022-07-19T11:08:54;12.43;;;4.45;;
24147;SDS011;12309;51.450;-2.624;2022-07-19T11:11:21;11.68;;;4.30;;
24147;SDS011;12309;51.450;-2.624;2022-07-19T11:13:49;12.05;;;4.80;;
24147;SDS011;12309;51.450;-2.624;2022-07-19T11:16:26;13.82;;;4.68;;
24147;SDS011;12309;51.450;-2.624;2022-07-19T11:19:01;14.10;;;4.82;;
24147;SDS011;12309;51.450;-2.624;2022-07-19T11:21:32;13.98;;;4.45;;
24147;SDS011;12309;51.450;-2.624;2022-07-19T11:24:00;13.93;;;5.25;;
24147;SDS011;12309;51.450;-2.624;2022-07-19T11:26:26;13.38;;;5.07;;
24147;SDS011;12309;51.450;-2.624;2022-07-19T11:29:03;14.13;;;5.45;;
24147;SDS011;12309;51.450;-2.624;2022-07-19T11:31:29;11.52;;;4.95;;
24147;SDS011;12309;51.450;-2.624;2022-07-19T11:33:55;19.73;;;5.80;;
24147;SDS011;12309;51.450;-2.624;2022-07-19T11:36:22;13.15;;;5.00;;
24147;SDS011;12309;51.450;-2.624;2022-07-19T11:38:53;17.95;;;5.85;;
24147;SDS011;12309;51.450;-2.624;2022-07-19T11:43:57;22.05;;;5.75;;
24147;SDS011;12309;51.450;-2.624;2022-07-19T11:46:27;18.88;;;6.00;;
24147;SDS011;12309;51.450;-2.624;2022-07-19T11:49:03;16.80;;;6.28;;
24147;SDS011;12309;51.450;-2.624;2022-07-19T11:51:30;19.42;;;8.00;;
24147;SDS011;12309;51.450;-2.624;2022-07-19T11:53:57;20.30;;;9.15;;
24147;SDS011;12309;51.450;-2.624;2022-07-19T11:56:25;16.25;;;9.70;;
24147;SDS011;12309;51.450;-2.624;2022-07-19T11:58:56;16.33;;;8.98;;
24147;SDS011;12309;51.450;-2.624;2022-07-19T12:01:30;14.57;;;9.40;;
24147;SDS011;12309;51.450;-2.624;2022-07-19T12:06:43;17.23;;;9.75;;
24147;SDS011;12309;51.450;-2.624;2022-07-19T12:09:11;16.80;;;8.60;;
24147;SDS011;12309;51.450;-2.624;2022-07-19T12:11:40;17.88;;;9.45;;
24147;SDS011;12309;51.450;-2.624;2022-07-19T12:16:43;14.27;;;8.10;;
24147;SDS011;12309;51.450;-2.624;2022-07-19T12:19:10;16.05;;;7.82;;
24147;SDS011;12309;51.450;-2.624;2022-07-19T12:21:39;19.27;;;7.90;;
24147;SDS011;12309;51.450;-2.624;2022-07-19T12:26:52;16.02;;;7.20;;
24147;SDS011;12309;51.450;-2.624;2022-07-19T12:32:02;15.07;;;6.63;;
24147;SDS011;12309;51.450;-2.624;2022-07-19T12:34:40;17.50;;;7.03;;
24147;SDS011;12309;51.450;-2.624;2022-07-19T12:37:19;16.30;;;6.40;;
24147;SDS011;12309;51.450;-2.624;2022-07-19T12:39:57;16.10;;;6.68;;
24147;SDS011;12309;51.450;-2.624;2022-07-19T12:42:43;13.18;;;6.38;;
24147;SDS011;12309;51.450;-2.624;2022-07-19T12:45:11;18.10;;;5.75;;
24147;SDS011;12309;51.450;-2.624;2022-07-19T12:47:47;13.80;;;5.93;;
24147;SDS011;12309;51.450;-2.624;2022-07-19T12:50:20;16.30;;;6.80;;
24147;SDS011;12309;51.450;-2.624;2022-07-19T12:52:48;16.02;;;6.38;;
24147;SDS011;12309;51.450;-2.624;2022-07-19T12:55:15;14.15;;;6.05;;
24147;SDS011;12309;51.450;-2.624;2022-07-19T12:57:41;13.73;;;6.20;;
24147;SDS011;12309;51.450;-2.624;2022-07-19T13:00:07;16.58;;;5.78;;
24147;SDS011;12309;51.450;-2.624;2022-07-19T13:02:33;13.73;;;6.20;;
24147;SDS011;12309;51.450;-2.624;2022-07-19T13:04:59;17.50;;;6.38;;
24147;SDS011;12309;51.450;-2.624;2022-07-19T13:07:25;12.77;;;6.30;;
24147;SDS011;12309;51.450;-2.624;2022-07-19T13:09:51;14.50;;;6.70;;
24147;SDS011;12309;51.450;-2.624;2022-07-19T13:12:17;15.25;;;7.05;;
24147;SDS011;12309;51.450;-2.624;2022-07-19T13:14:43;17.92;;;6.63;;
24147;SDS011;12309;51.450;-2.624;2022-07-19T13:17:08;16.85;;;6.55;;
24147;SDS011;12309;51.450;-2.624;2022-07-19T13:19:37;14.18;;;6.28;;
24147;SDS011;12309;51.450;-2.624;2022-07-19T13:22:04;14.48;;;6.15;;
24147;SDS011;12309;51.450;-2.624;2022-07-19T13:24:31;9.27;;;6.28;;
24147;SDS011;12309;51.450;-2.624;2022-07-19T13:26:57;12.93;;;6.43;;
24147;SDS011;12309;51.450;-2.624;2022-07-19T13:29:23;18.05;;;6.72;;
24147;SDS011;12309;51.450;-2.624;2022-07-19T13:31:49;19.85;;;6.68;;
24147;SDS011;12309;51.450;-2.624;2022-07-19T13:34:15;15.75;;;6.97;;
24147;SDS011;12309;51.450;-2.624;2022-07-19T13:36:41;14.40;;;6.20;;
24147;SDS011;12309;51.450;-2.624;2022-07-19T13:39:08;21.33;;;6.40;;
24147;SDS011;12309;51.450;-2.624;2022-07-19T13:41:35;10.90;;;6.38;;
24147;SDS011;12309;51.450;-2.624;2022-07-19T13:44:02;14.13;;;6.53;;
24147;SDS011;12309;51.450;-2.624;2022-07-19T13:46:28;11.75;;;7.15;;
24147;SDS011;12309;51.450;-2.624;2022-07-19T13:48:54;17.27;;;6.70;;
24147;SDS011;12309;51.450;-2.624;2022-07-19T13:51:20;16.92;;;6.93;;
24147;SDS011;12309;51.450;-2.624;2022-07-19T13:53:46;18.45;;;7.32;;
24147;SDS011;12309;51.450;-2.624;2022-07-19T13:56:13;23.08;;;7.60;;
24147;SDS011;12309;51.450;-2.624;2022-07-19T13:58:39;24.60;;;7.20;;
24147;SDS011;12309;51.450;-2.624;2022-07-19T14:01:05;18.35;;;7.60;;
24147;SDS011;12309;51.450;-2.624;2022-07-19T14:03:31;19.23;;;6.88;;
24147;SDS011;12309;51.450;-2.624;2022-07-19T14:05:57;15.95;;;6.50;;
24147;SDS011;12309;51.450;-2.624;2022-07-19T14:08:23;17.15;;;7.07;;
24147;SDS011;12309;51.450;-2.624;2022-07-19T14:10:49;21.33;;;6.78;;
24147;SDS011;12309;51.450;-2.624;2022-07-19T14:13:15;15.50;;;7.05;;
24147;SDS011;12309;51.450;-2.624;2022-07-19T14:15:41;16.48;;;7.03;;
24147;SDS011;12309;51.450;-2.624;2022-07-19T14:18:08;11.57;;;6.55;;
24147;SDS011;12309;51.450;-2.624;2022-07-19T14:20:35;33.70;;;8.98;;
24147;SDS011;12309;51.450;-2.624;2022-07-19T14:23:01;15.68;;;7.47;;
24147;SDS011;12309;51.450;-2.624;2022-07-19T14:25:27;18.33;;;7.40;;
24147;SDS011;12309;51.450;-2.624;2022-07-19T14:27:53;19.50;;;7.13;;
24147;SDS011;12309;51.450;-2.624;2022-07-19T14:30:19;23.95;;;7.15;;
24147;SDS011;12309;51.450;-2.624;2022-07-19T14:32:44;17.73;;;7.38;;
24147;SDS011;12309;51.450;-2.624;2022-07-19T14:35:10;16.85;;;7.47;;
24147;SDS011;12309;51.450;-2.624;2022-07-19T14:37:36;21.27;;;7.70;;
24147;SDS011;12309;51.450;-2.624;2022-07-19T14:40:02;27.45;;;8.52;;
24147;SDS011;12309;51.450;-2.624;2022-07-19T14:42:28;27.25;;;8.27;;
24147;SDS011;12309;51.450;-2.624;2022-07-19T14:44:57;31.67;;;8.05;;
24147;SDS011;12309;51.450;-2.624;2022-07-19T14:47:23;23.00;;;8.38;;
24147;SDS011;12309;51.450;-2.624;2022-07-19T14:49:49;20.48;;;8.60;;